METAR / TAF

Buochs LSZC 070720Z AUTO 12003KT 070V200 9999 NCD 19/11 Q1024

TAF LSZC 070525Z 0706/0715 VRB02KT CAVOK BECMG 0709/0711 9999 FEW050


Alpnach AFB LSMA 070720Z 07008KT 030V100 9999 FEW055 18/11 Q1024 RMK BLU+

TAF LSMA 061625Z 0617/0723 05005KT 9999 BKN070 BECMG 0700/0703 CAVOK BECMG 0709/0712 06010KT 9999 SCT050 PROB30 TEMPO 0713/0717 06015G25KT PROB40 TEMPO 0715/0717 SHRA SCT040TCU


Emmen AFB LSME 070720Z VRB01KT 9999 FEW065 19/10 Q1024 RMK BLU+

TAF LSME 061625Z 0617/0723 34005KT 9999 SCT065 BECMG 0700/0703 CAVOK BECMG 0709/0712 33008KT 9999 SCT050 PROB30 TEMPO 0713/0717 32015G25KT PROB30 TEMPO 0715/0717 SHRA SCT040TCU


Bern LSZB 070720Z 30002KT CAVOK 18/11 Q1024 NOSIG

TAF LSZB 070525Z 0706/0715 VRB02KT CAVOK BECMG 0710/0713 9999 SCT060


Grenchen LSZG 070720Z VRB01KT CAVOK 18/09 Q1024 NOSIG

TAF LSZG 070525Z 0706/0715 VRB01KT CAVOK TEMPO 0711/0715 31010KT 9999 FEW060


Zurich LSZH 070720Z VRB02KT CAVOK 19/09 Q1024 NOSIG

TAF LSZH 070525Z 0706/0812 31004KT CAVOK TX23/0714Z TN12/0706Z TN13/0804Z BECMG 0710/0713 30014KT 9999 SCT050 PROB30 TEMPO 0712/0717 SHRA BECMG 0717/0719 34005KT BECMG 0807/0810 04007KT


Bale LFSB 070730Z VRB02KT CAVOK 20/10 Q1024 NOSIG

TAF LFSB 070500Z 0706/0806 VRB03KT CAVOK BECMG 0708/0711 28010KT BKN050 BECMG 0714/0716 36008KT


Les Eplatures LSGC 070720Z 04006KT 330V070 CAVOK 16/08 Q1025

TAF LSGC 070554Z 0706/0715 VRB02KT CAVOK TEMPO 0713/0715 35010KT 9999 FEW045


Geneva LSGG 070720Z 04006KT 350V080 CAVOK 20/11 Q1023 NOSIG

TAF LSGG 070525Z 0706/0812 VRB02KT CAVOK TX27/0715Z TN18/0706Z TN15/0804Z BECMG 0707/0710 05012KT BECMG 0718/0721 VRB02KT BECMG 0806/0808 05010KT PROB30 TEMPO 0809/0812 05015G25KT


Sion LSGS 070720Z VRB03KT 9999 FEW040 20/12 Q1023

TAF LSGS 070525Z 0706/0715 VRB02KT CAVOK BECMG 0710/0712 25012KT FEW100


Payerne AFB LSMP 070720Z AUTO VRB02KT 9999NDV NCD 18/10 Q1024

TAF LSMP 070552Z 0706/0812 VRB02KT CAVOK TEMPO 0713/0717 35010KT BECMG 0810/0812 04010KT


Lugano LSZA 070720Z VRB02KT 9999 FEW100 23/15 Q1018 NOSIG

TAF LSZA 070525Z 0706/0715 VRB02KT 9999 FEW080 BECMG 0706/0708 CAVOK BECMG 0710/0713 9999 FEW080 PROB30 TEMPO 0713/0715 01015G25KT


Locarno LSZL 070720Z 09003KT 050V150 9999 FEW100 23/13 Q1018 BLU+

TAF LSZL 070525Z 0706/0715 26003KT 9999 FEW100 TEMPO 0708/0713 CAVOK


St. Gallen LSZR 070720Z VRB02KT CAVOK 18/10 Q1023 NOSIG RMK D

TAF LSZR 070525Z 0706/0715 29004KT CAVOK BECMG 0710/0713 9999 SCT050 PROB30 TEMPO 0712/0715 29015KT SHRA


Samedan LSZS 070720Z VRB02KT CAVOK 11/08 Q1025 RMK D TL170

TAF LSZS 070525Z 0706/0715 VRB01KT CAVOK TX19/0715Z BECMG 0710/0712 33012G22KT 9999 FEW080

Radar

Föhn diagram

From an air pressure difference of approx. 4 hPa (dashed line) between the northern and southern Alps, Föhn can occur. The higher the pressure difference, the more violent the Föhn!

Forecast

Privacy Settings
We use cookies to enhance your experience while using our website. If you are using our Services via a browser you can restrict, block or remove cookies through your web browser settings. We also use content and scripts from third parties that may use tracking technologies. You can selectively provide your consent below to allow such third party embeds. For complete information about the cookies we use, data we collect and how we process them, please check our Privacy Policy
Youtube
Consent to display content from Youtube
Vimeo
Consent to display content from Vimeo
Google Maps
Consent to display content from Google